ACA290 CYTZ-KPHL
Flight info
| Callsign | ACA290 |
|---|---|
| Flight time | 0h 39m |
| Altitude | 33000 |
| Route | DUSOM2 PSB BUNTS3 |
| Aircraft | B738/M-SDGIJ1LRWY/SB1 |
Departure
| Time | 2026-04-23 16:31 |
|---|---|
| Airport | Billy Bishop Toronto City Airport (CYTZ) |
Arrival
| Time | 2026-04-23 17:10 |
|---|---|
| Airport | Philadelphia International Airport (KPHL) |
| Time | Latitude | Longitude | Altitude | Speed | Heading |
|---|---|---|---|---|---|
| 2026-04-23 16:31 | 43.57935 | -79.55524 | 13232 ft | 325 kts | 268° |
| 2026-04-23 16:31 | 43.57648 | -79.58409 | 13976 ft | 340 kts | 268° |
| 2026-04-23 16:32 | 43.57321 | -79.61698 | 14710 ft | 357 kts | 268° |
| 2026-04-23 16:32 | 43.56978 | -79.65105 | 15416 ft | 372 kts | 267° |
| 2026-04-23 16:32 | 43.56613 | -79.68723 | 16122 ft | 388 kts | 266° |
| 2026-04-23 16:32 | 43.56233 | -79.72431 | 17063 ft | 396 kts | 266° |
| 2026-04-23 16:33 | 43.55844 | -79.76186 | 18178 ft | 400 kts | 266° |
| 2026-04-23 16:33 | 43.55449 | -79.79980 | 19145 ft | 405 kts | 266° |
| 2026-04-23 16:33 | 43.55049 | -79.83828 | 20115 ft | 411 kts | 266° |
| 2026-04-23 16:33 | 43.54645 | -79.87731 | 21006 ft | 417 kts | 266° |
| 2026-04-23 16:34 | 43.54236 | -79.91674 | 21848 ft | 424 kts | 266° |
| 2026-04-23 16:34 | 43.53815 | -79.95697 | 22760 ft | 428 kts | 266° |
| 2026-04-23 16:34 | 43.53392 | -79.99749 | 23611 ft | 434 kts | 266° |
| 2026-04-23 16:34 | 43.52956 | -80.03906 | 24430 ft | 440 kts | 266° |
| 2026-04-23 16:35 | 43.52519 | -80.08054 | 25218 ft | 446 kts | 266° |
| 2026-04-23 16:35 | 43.52074 | -80.12262 | 26016 ft | 451 kts | 266° |
| 2026-04-23 16:35 | 43.51613 | -80.16609 | 26795 ft | 456 kts | 266° |
| 2026-04-23 16:35 | 43.51154 | -80.20917 | 27531 ft | 460 kts | 266° |
| 2026-04-23 16:36 | 43.50692 | -80.25200 | 28630 ft | 456 kts | 266° |
| 2026-04-23 16:36 | 43.50261 | -80.29176 | 29677 ft | 451 kts | 266° |
| 2026-04-23 16:36 | 43.49802 | -80.33398 | 30586 ft | 449 kts | 266° |
| 2026-04-23 16:36 | 43.49340 | -80.37651 | 31475 ft | 446 kts | 267° |
| 2026-04-23 16:37 | 43.48882 | -80.41867 | 31960 ft | 448 kts | 267° |
| 2026-04-23 16:37 | 43.48424 | -80.46085 | 32051 ft | 446 kts | 267° |
| 2026-04-23 16:37 | 43.47492 | -80.54619 | 32058 ft | 443 kts | 267° |
| 2026-04-23 16:38 | 43.46878 | -80.60219 | 32054 ft | 445 kts | 267° |
| 2026-04-23 16:38 | 43.45967 | -80.68473 | 32055 ft | 444 kts | 266° |
| 2026-04-23 16:39 | 43.45468 | -80.76884 | 32045 ft | 435 kts | 281° |
| 2026-04-23 16:39 | 43.46203 | -80.80871 | 32040 ft | 430 kts | 292° |
| 2026-04-23 16:39 | 43.47251 | -80.84676 | 32035 ft | 431 kts | 289° |
| 2026-04-23 16:40 | 43.47625 | -80.88773 | 32040 ft | 441 kts | 271° |
| 2026-04-23 16:40 | 43.47103 | -80.92333 | 32046 ft | 452 kts | 255° |
| 2026-04-23 16:40 | 43.46081 | -80.95104 | 32054 ft | 462 kts | 241° |
| 2026-04-23 16:40 | 43.44059 | -80.98222 | 32058 ft | 477 kts | 226° |
| 2026-04-23 16:41 | 43.41272 | -81.00695 | 32041 ft | 486 kts | 210° |
| 2026-04-23 16:41 | 43.38078 | -81.02169 | 32044 ft | 494 kts | 197° |
| 2026-04-23 16:41 | 43.31416 | -81.02542 | 32032 ft | 508 kts | 171° |
| 2026-04-23 16:42 | 43.28061 | -81.00875 | 32042 ft | 514 kts | 152° |
| 2026-04-23 16:42 | 43.25148 | -80.98090 | 32054 ft | 515 kts | 140° |
| 2026-04-23 16:42 | 43.20061 | -80.91215 | 32046 ft | 515 kts | 131° |
| 2026-04-23 16:43 | 43.15273 | -80.83920 | 32042 ft | 516 kts | 131° |
| 2026-04-23 16:43 | 43.10415 | -80.76776 | 32049 ft | 517 kts | 133° |
| 2026-04-23 16:44 | 43.05378 | -80.69775 | 32039 ft | 515 kts | 134° |
| 2026-04-23 16:44 | 43.00276 | -80.62923 | 32044 ft | 518 kts | 135° |
| 2026-04-23 16:45 | 42.95096 | -80.56062 | 32044 ft | 517 kts | 135° |
| 2026-04-23 16:45 | 42.89968 | -80.49297 | 32040 ft | 516 kts | 135° |
| 2026-04-23 16:46 | 42.84880 | -80.42591 | 32043 ft | 517 kts | 135° |
| 2026-04-23 16:46 | 42.79706 | -80.35777 | 32040 ft | 517 kts | 134° |
| 2026-04-23 16:47 | 42.74688 | -80.29179 | 32044 ft | 517 kts | 135° |
| 2026-04-23 16:47 | 42.69525 | -80.22402 | 32041 ft | 519 kts | 135° |
| 2026-04-23 16:48 | 42.64358 | -80.15637 | 32041 ft | 518 kts | 135° |
| 2026-04-23 16:48 | 42.59153 | -80.08841 | 32040 ft | 518 kts | 135° |
| 2026-04-23 16:49 | 42.54034 | -80.02173 | 32042 ft | 519 kts | 135° |
| 2026-04-23 16:49 | 42.48866 | -79.95456 | 32040 ft | 519 kts | 135° |
| 2026-04-23 16:50 | 42.43844 | -79.88945 | 32042 ft | 519 kts | 135° |
| 2026-04-23 16:50 | 41.87149 | -79.16570 | 32032 ft | 520 kts | 135° |
| 2026-04-23 16:51 | 40.84797 | -77.91003 | 32085 ft | 521 kts | 134° |
| 2026-04-23 16:51 | 40.42731 | -77.30299 | 31954 ft | 520 kts | 124° |
| 2026-04-23 16:51 | 40.27628 | -77.02599 | 32036 ft | 514 kts | 111° |
| 2026-04-23 16:52 | 40.26305 | -76.98233 | 31895 ft | 506 kts | 101° |
| 2026-04-23 16:52 | 40.25439 | -76.93700 | 31633 ft | 501 kts | 96° |
| 2026-04-23 16:52 | 40.24817 | -76.89378 | 31381 ft | 500 kts | 94° |
| 2026-04-23 16:52 | 40.24197 | -76.84865 | 31122 ft | 503 kts | 95° |
| 2026-04-23 16:53 | 40.23523 | -76.80396 | 30863 ft | 503 kts | 96° |
| 2026-04-23 16:53 | 40.22762 | -76.75976 | 30566 ft | 503 kts | 97° |
| 2026-04-23 16:53 | 40.21905 | -76.71555 | 29851 ft | 500 kts | 99° |
| 2026-04-23 16:53 | 40.20974 | -76.67118 | 28494 ft | 507 kts | 101° |
| 2026-04-23 16:54 | 40.20001 | -76.62781 | 27887 ft | 497 kts | 102° |
| 2026-04-23 16:54 | 40.19067 | -76.58768 | 26973 ft | 497 kts | 102° |
| 2026-04-23 16:54 | 40.18051 | -76.54457 | 25854 ft | 498 kts | 103° |
| 2026-04-23 16:54 | 40.17033 | -76.50191 | 25220 ft | 489 kts | 103° |
| 2026-04-23 16:55 | 40.16020 | -76.45970 | 24228 ft | 487 kts | 103° |
| 2026-04-23 16:55 | 40.15032 | -76.41852 | 23749 ft | 476 kts | 103° |
| 2026-04-23 16:55 | 40.14032 | -76.37673 | 23292 ft | 488 kts | 103° |
| 2026-04-23 16:55 | 40.13048 | -76.33476 | 22493 ft | 488 kts | 103° |
| 2026-04-23 16:56 | 40.12206 | -76.29179 | 21416 ft | 484 kts | 98° |
| 2026-04-23 16:56 | 40.11637 | -76.24922 | 20976 ft | 466 kts | 95° |
| 2026-04-23 16:56 | 40.11236 | -76.20784 | 20158 ft | 460 kts | 92° |
| 2026-04-23 16:56 | 40.10932 | -76.16667 | 19306 ft | 455 kts | 91° |
| 2026-04-23 16:57 | 40.10695 | -76.12917 | 18967 ft | 441 kts | 90° |
| 2026-04-23 16:57 | 40.10461 | -76.08927 | 18068 ft | 442 kts | 90° |
| 2026-04-23 16:57 | 40.10235 | -76.04929 | 17333 ft | 435 kts | 90° |
| 2026-04-23 16:57 | 40.10023 | -76.01331 | 16954 ft | 429 kts | 90° |
| 2026-04-23 16:58 | 40.09785 | -75.97446 | 16054 ft | 430 kts | 91° |
| 2026-04-23 16:58 | 40.09537 | -75.93592 | 15298 ft | 423 kts | 91° |
| 2026-04-23 16:58 | 40.09294 | -75.90015 | 14924 ft | 420 kts | 91° |
| 2026-04-23 16:58 | 40.09031 | -75.86231 | 14202 ft | 421 kts | 92° |
| 2026-04-23 16:59 | 40.08761 | -75.82375 | 13134 ft | 422 kts | 92° |
| 2026-04-23 16:59 | 40.08488 | -75.78553 | 12478 ft | 411 kts | 92° |
| 2026-04-23 16:59 | 40.08164 | -75.74850 | 12055 ft | 403 kts | 95° |
| 2026-04-23 16:59 | 40.07606 | -75.71122 | 11554 ft | 415 kts | 99° |
| 2026-04-23 17:00 | 40.06910 | -75.67509 | 11091 ft | 404 kts | 102° |
| 2026-04-23 17:00 | 40.06155 | -75.64013 | 10887 ft | 383 kts | 103° |
| 2026-04-23 17:00 | 40.05426 | -75.60754 | 10761 ft | 364 kts | 103° |
| 2026-04-23 17:00 | 40.04734 | -75.57653 | 10620 ft | 348 kts | 102° |
| 2026-04-23 17:01 | 40.04078 | -75.54664 | 10475 ft | 333 kts | 102° |
| 2026-04-23 17:01 | 40.03464 | -75.51800 | 10356 ft | 319 kts | 101° |
| 2026-04-23 17:01 | 40.02889 | -75.49062 | 10210 ft | 307 kts | 101° |
| 2026-04-23 17:01 | 40.02347 | -75.46451 | 10035 ft | 301 kts | 100° |
| 2026-04-23 17:02 | 40.01990 | -75.44711 | 9848 ft | 308 kts | 101° |
| 2026-04-23 17:02 | 40.01190 | -75.41227 | 9464 ft | 302 kts | 103° |
| 2026-04-23 17:02 | 40.00583 | -75.38605 | 9042 ft | 301 kts | 102° |
| 2026-04-23 17:02 | 40.00004 | -75.36036 | 8658 ft | 299 kts | 102° |
| 2026-04-23 17:03 | 39.99433 | -75.33466 | 8292 ft | 296 kts | 102° |
| 2026-04-23 17:03 | 39.98879 | -75.30922 | 7875 ft | 295 kts | 102° |
| 2026-04-23 17:03 | 39.98432 | -75.28579 | 7571 ft | 290 kts | 99° |
| 2026-04-23 17:03 | 39.98020 | -75.26117 | 7405 ft | 280 kts | 99° |
| 2026-04-23 17:04 | 39.97617 | -75.23873 | 7270 ft | 272 kts | 99° |
| 2026-04-23 17:04 | 39.97222 | -75.21653 | 6987 ft | 270 kts | 99° |
| 2026-04-23 17:04 | 39.96840 | -75.19449 | 6651 ft | 269 kts | 99° |
| 2026-04-23 17:04 | 39.96455 | -75.17172 | 6316 ft | 264 kts | 99° |
| 2026-04-23 17:05 | 39.96091 | -75.15005 | 5968 ft | 255 kts | 99° |
| 2026-04-23 17:05 | 39.95795 | -75.12869 | 5617 ft | 248 kts | 95° |
| 2026-04-23 17:05 | 39.95577 | -75.10832 | 5277 ft | 243 kts | 94° |
| 2026-04-23 17:05 | 39.95369 | -75.08823 | 4935 ft | 239 kts | 94° |
| 2026-04-23 17:06 | 39.95155 | -75.06834 | 4589 ft | 235 kts | 97° |
| 2026-04-23 17:06 | 39.94580 | -75.05007 | 4184 ft | 238 kts | 124° |
| 2026-04-23 17:06 | 39.93407 | -75.03708 | 3707 ft | 241 kts | 154° |
| 2026-04-23 17:06 | 39.91882 | -75.03278 | 3224 ft | 239 kts | 183° |
| 2026-04-23 17:07 | 39.90325 | -75.03774 | 2743 ft | 233 kts | 211° |
| 2026-04-23 17:07 | 39.89217 | -75.05163 | 2501 ft | 214 kts | 244° |
| 2026-04-23 17:07 | 39.88797 | -75.06895 | 2353 ft | 196 kts | 266° |
| 2026-04-23 17:07 | 39.88787 | -75.08581 | 2231 ft | 176 kts | 275° |
| 2026-04-23 17:08 | 39.88913 | -75.10155 | 2093 ft | 177 kts | 282° |
| 2026-04-23 17:08 | 39.89126 | -75.11704 | 1849 ft | 175 kts | 281° |
| 2026-04-23 17:08 | 39.89088 | -75.13246 | 1615 ft | 177 kts | 266° |
| 2026-04-23 17:08 | 39.88980 | -75.14825 | 1372 ft | 177 kts | 266° |
| 2026-04-23 17:09 | 39.88741 | -75.16354 | 1027 ft | 169 kts | 256° |
| 2026-04-23 17:09 | 39.88405 | -75.17746 | 747 ft | 156 kts | 256° |
| 2026-04-23 17:09 | 39.88173 | -75.19076 | 527 ft | 145 kts | 259° |
| 2026-04-23 17:09 | 39.87915 | -75.20295 | 351 ft | 142 kts | 255° |
| 2026-04-23 17:10 | 39.87667 | -75.21573 | 169 ft | 151 kts | 257° |
| 2026-04-23 17:10 | 39.87403 | -75.22890 | 17 ft | 148 kts | 256° |
| 2026-04-23 17:10 | 39.87208 | -75.23876 | 15 ft | 73 kts | 256° |
| 2026-04-23 17:10 | 39.87159 | -75.24250 | 15 ft | 20 kts | 275° |
| 2026-04-23 17:11 | 39.87162 | -75.24284 | 15 ft | 7 kts | 276° |
| 2026-04-23 17:11 | 39.87178 | -75.24417 | 15 ft | 22 kts | 285° |
| 2026-04-23 17:11 | 39.87192 | -75.24484 | 15 ft | 0 kts | 285° |
| 2026-04-23 17:11 | 39.87210 | -75.24522 | 15 ft | 12 kts | 315° |
| 2026-04-23 17:12 | 39.87314 | -75.24582 | 15 ft | 18 kts | 330° |
| 2026-04-23 17:12 | 39.87340 | -75.24627 | 15 ft | 8 kts | 304° |
| 2026-04-23 17:12 | 39.87347 | -75.24651 | 15 ft | 1 kts | 279° |
| 2026-04-23 17:12 | 39.87348 | -75.24661 | 15 ft | 0 kts | 277° |